sensor_id;sensor_type;location;lat;lon;timestamp;temperature;humidity
17998;DHT22;9124;48.144;17.098;2022-07-04T00:02:26;22.00;62.10
17998;DHT22;9124;48.144;17.098;2022-07-04T00:06:03;22.00;62.40
17998;DHT22;9124;48.144;17.098;2022-07-04T00:09:39;22.00;62.50
17998;DHT22;9124;48.144;17.098;2022-07-04T00:13:16;21.90;62.70
17998;DHT22;9124;48.144;17.098;2022-07-04T00:16:53;21.90;62.90
17998;DHT22;9124;48.144;17.098;2022-07-04T00:20:30;21.90;63.20
17998;DHT22;9124;48.144;17.098;2022-07-04T00:24:07;21.80;63.60
17998;DHT22;9124;48.144;17.098;2022-07-04T00:27:44;21.80;63.70
17998;DHT22;9124;48.144;17.098;2022-07-04T00:31:20;21.70;63.80
17998;DHT22;9124;48.144;17.098;2022-07-04T00:34:57;21.70;63.80
17998;DHT22;9124;48.144;17.098;2022-07-04T00:38:34;21.70;64.10
17998;DHT22;9124;48.144;17.098;2022-07-04T00:42:11;21.70;64.20
17998;DHT22;9124;48.144;17.098;2022-07-04T00:45:47;21.60;64.60
17998;DHT22;9124;48.144;17.098;2022-07-04T00:49:24;21.50;64.90
17998;DHT22;9124;48.144;17.098;2022-07-04T00:53:00;21.40;65.30
17998;DHT22;9124;48.144;17.098;2022-07-04T00:56:40;21.30;65.60
17998;DHT22;9124;48.144;17.098;2022-07-04T01:00:18;21.30;66.00
17998;DHT22;9124;48.144;17.098;2022-07-04T01:03:56;21.20;66.30
17998;DHT22;9124;48.144;17.098;2022-07-04T01:07:33;21.20;66.80
17998;DHT22;9124;48.144;17.098;2022-07-04T01:11:10;21.10;66.80
17998;DHT22;9124;48.144;17.098;2022-07-04T01:14:46;21.20;66.60
17998;DHT22;9124;48.144;17.098;2022-07-04T01:18:24;21.40;66.30
17998;DHT22;9124;48.144;17.098;2022-07-04T01:22:05;21.50;66.10
17998;DHT22;9124;48.144;17.098;2022-07-04T01:25:43;21.60;65.70
17998;DHT22;9124;48.144;17.098;2022-07-04T01:29:19;21.80;65.40
17998;DHT22;9124;48.144;17.098;2022-07-04T01:32:57;21.90;65.00
17998;DHT22;9124;48.144;17.098;2022-07-04T01:36:33;21.90;64.70
17998;DHT22;9124;48.144;17.098;2022-07-04T01:40:11;21.90;65.00
17998;DHT22;9124;48.144;17.098;2022-07-04T01:43:48;21.80;65.70
17998;DHT22;9124;48.144;17.098;2022-07-04T01:47:25;21.60;65.70
17998;DHT22;9124;48.144;17.098;2022-07-04T01:51:03;21.50;66.00
17998;DHT22;9124;48.144;17.098;2022-07-04T01:54:39;21.40;66.20
17998;DHT22;9124;48.144;17.098;2022-07-04T01:58:16;21.30;66.50
17998;DHT22;9124;48.144;17.098;2022-07-04T02:01:52;21.20;67.00
17998;DHT22;9124;48.144;17.098;2022-07-04T02:05:29;21.10;67.50
17998;DHT22;9124;48.144;17.098;2022-07-04T02:09:06;21.00;68.10
17998;DHT22;9124;48.144;17.098;2022-07-04T02:12:52;20.90;68.30
17998;DHT22;9124;48.144;17.098;2022-07-04T02:16:38;20.90;69.10
17998;DHT22;9124;48.144;17.098;2022-07-04T02:20:15;20.80;69.00
17998;DHT22;9124;48.144;17.098;2022-07-04T02:23:52;20.80;69.30
17998;DHT22;9124;48.144;17.098;2022-07-04T02:27:29;20.80;69.30
17998;DHT22;9124;48.144;17.098;2022-07-04T02:31:06;20.80;69.20
17998;DHT22;9124;48.144;17.098;2022-07-04T02:34:42;20.90;69.10
17998;DHT22;9124;48.144;17.098;2022-07-04T02:38:19;20.90;69.70
17998;DHT22;9124;48.144;17.098;2022-07-04T02:41:56;20.80;70.30
17998;DHT22;9124;48.144;17.098;2022-07-04T02:45:32;20.80;71.00
17998;DHT22;9124;48.144;17.098;2022-07-04T02:49:09;20.70;71.40
17998;DHT22;9124;48.144;17.098;2022-07-04T02:52:46;20.60;71.80
17998;DHT22;9124;48.144;17.098;2022-07-04T02:56:23;20.50;72.10
17998;DHT22;9124;48.144;17.098;2022-07-04T02:59:59;20.50;72.40
17998;DHT22;9124;48.144;17.098;2022-07-04T03:03:36;20.40;72.60
17998;DHT22;9124;48.144;17.098;2022-07-04T03:07:13;20.40;72.80
17998;DHT22;9124;48.144;17.098;2022-07-04T03:10:50;20.40;73.00
17998;DHT22;9124;48.144;17.098;2022-07-04T03:14:29;20.40;73.30
17998;DHT22;9124;48.144;17.098;2022-07-04T03:18:06;20.40;73.40
17998;DHT22;9124;48.144;17.098;2022-07-04T03:21:43;20.40;73.70
17998;DHT22;9124;48.144;17.098;2022-07-04T03:25:21;20.40;73.90
17998;DHT22;9124;48.144;17.098;2022-07-04T03:28:59;20.40;74.10
17998;DHT22;9124;48.144;17.098;2022-07-04T03:32:36;20.40;74.20
17998;DHT22;9124;48.144;17.098;2022-07-04T03:36:13;20.40;74.20
17998;DHT22;9124;48.144;17.098;2022-07-04T03:39:50;20.50;74.20
17998;DHT22;9124;48.144;17.098;2022-07-04T03:43:27;20.50;74.30
17998;DHT22;9124;48.144;17.098;2022-07-04T03:47:03;20.60;74.20
17998;DHT22;9124;48.144;17.098;2022-07-04T03:50:40;20.60;74.20
17998;DHT22;9124;48.144;17.098;2022-07-04T03:54:17;20.70;74.20
17998;DHT22;9124;48.144;17.098;2022-07-04T03:57:54;20.80;74.20
17998;DHT22;9124;48.144;17.098;2022-07-04T04:01:30;20.90;74.20
17998;DHT22;9124;48.144;17.098;2022-07-04T04:05:07;21.00;74.10
17998;DHT22;9124;48.144;17.098;2022-07-04T04:09:02;21.10;73.80
17998;DHT22;9124;48.144;17.098;2022-07-04T04:12:40;21.20;73.60
17998;DHT22;9124;48.144;17.098;2022-07-04T04:16:16;21.30;73.40
17998;DHT22;9124;48.144;17.098;2022-07-04T04:19:53;21.40;73.10
17998;DHT22;9124;48.144;17.098;2022-07-04T04:23:30;21.50;72.90
17998;DHT22;9124;48.144;17.098;2022-07-04T04:27:07;21.60;72.60
17998;DHT22;9124;48.144;17.098;2022-07-04T04:30:43;21.60;72.40
17998;DHT22;9124;48.144;17.098;2022-07-04T04:34:20;21.70;72.10
17998;DHT22;9124;48.144;17.098;2022-07-04T04:37:57;21.90;71.90
17998;DHT22;9124;48.144;17.098;2022-07-04T04:41:34;22.10;71.50
17998;DHT22;9124;48.144;17.098;2022-07-04T04:45:11;22.20;71.10
17998;DHT22;9124;48.144;17.098;2022-07-04T04:48:48;22.40;70.60
17998;DHT22;9124;48.144;17.098;2022-07-04T04:52:25;22.60;70.10
17998;DHT22;9124;48.144;17.098;2022-07-04T04:56:01;22.80;69.60
17998;DHT22;9124;48.144;17.098;2022-07-04T04:59:38;22.90;69.00
17998;DHT22;9124;48.144;17.098;2022-07-04T05:03:18;23.10;69.20
17998;DHT22;9124;48.144;17.098;2022-07-04T05:06:55;23.20;69.00
17998;DHT22;9124;48.144;17.098;2022-07-04T05:10:32;23.30;69.00
17998;DHT22;9124;48.144;17.098;2022-07-04T05:14:09;23.40;68.90
17998;DHT22;9124;48.144;17.098;2022-07-04T05:17:45;23.60;68.70
17998;DHT22;9124;48.144;17.098;2022-07-04T05:21:22;23.80;68.50
17998;DHT22;9124;48.144;17.098;2022-07-04T05:25:03;24.10;68.30
17998;DHT22;9124;48.144;17.098;2022-07-04T05:28:39;24.40;67.90
17998;DHT22;9124;48.144;17.098;2022-07-04T05:32:16;24.90;67.30
17998;DHT22;9124;48.144;17.098;2022-07-04T05:35:53;26.80;65.00
17998;DHT22;9124;48.144;17.098;2022-07-04T05:39:30;30.60;60.20
17998;DHT22;9124;48.144;17.098;2022-07-04T05:43:06;31.50;55.50
17998;DHT22;9124;48.144;17.098;2022-07-04T05:46:43;31.90;53.40
17998;DHT22;9124;48.144;17.098;2022-07-04T05:50:20;31.40;52.40
17998;DHT22;9124;48.144;17.098;2022-07-04T05:53:57;31.00;52.40
17998;DHT22;9124;48.144;17.098;2022-07-04T05:57:34;30.70;52.10
17998;DHT22;9124;48.144;17.098;2022-07-04T06:01:10;30.50;52.10
17998;DHT22;9124;48.144;17.098;2022-07-04T06:04:47;30.30;52.00
17998;DHT22;9124;48.144;17.098;2022-07-04T06:08:24;30.40;51.90
17998;DHT22;9124;48.144;17.098;2022-07-04T06:12:01;30.30;51.60
17998;DHT22;9124;48.144;17.098;2022-07-04T06:15:38;30.80;51.50
17998;DHT22;9124;48.144;17.098;2022-07-04T06:19:15;31.70;50.80
17998;DHT22;9124;48.144;17.098;2022-07-04T06:22:51;32.60;49.40
17998;DHT22;9124;48.144;17.098;2022-07-04T06:26:28;32.20;48.90
17998;DHT22;9124;48.144;17.098;2022-07-04T06:30:05;31.30;49.90
17998;DHT22;9124;48.144;17.098;2022-07-04T06:33:43;30.60;50.00
17998;DHT22;9124;48.144;17.098;2022-07-04T06:37:38;30.60;50.50
17998;DHT22;9124;48.144;17.098;2022-07-04T06:41:15;31.00;50.30
17998;DHT22;9124;48.144;17.098;2022-07-04T06:44:51;31.10;50.20
17998;DHT22;9124;48.144;17.098;2022-07-04T06:48:28;31.20;50.30
17998;DHT22;9124;48.144;17.098;2022-07-04T06:52:05;31.20;50.70
17998;DHT22;9124;48.144;17.098;2022-07-04T06:55:42;31.40;50.90
17998;DHT22;9124;48.144;17.098;2022-07-04T06:59:19;31.70;50.60
17998;DHT22;9124;48.144;17.098;2022-07-04T07:02:58;32.00;50.40
17998;DHT22;9124;48.144;17.098;2022-07-04T07:06:34;32.60;49.60
17998;DHT22;9124;48.144;17.098;2022-07-04T07:10:11;34.20;48.20
17998;DHT22;9124;48.144;17.098;2022-07-04T07:13:49;34.90;46.60
17998;DHT22;9124;48.144;17.098;2022-07-04T07:17:28;34.60;46.30
17998;DHT22;9124;48.144;17.098;2022-07-04T07:21:04;37.60;44.90
17998;DHT22;9124;48.144;17.098;2022-07-04T07:24:41;40.90;42.00
17998;DHT22;9124;48.144;17.098;2022-07-04T07:28:17;43.50;38.50
17998;DHT22;9124;48.144;17.098;2022-07-04T07:31:55;43.10;36.40
17998;DHT22;9124;48.144;17.098;2022-07-04T07:35:31;44.20;35.20
17998;DHT22;9124;48.144;17.098;2022-07-04T07:39:08;46.20;33.40
17998;DHT22;9124;48.144;17.098;2022-07-04T07:42:45;46.50;31.90
17998;DHT22;9124;48.144;17.098;2022-07-04T07:46:22;46.50;31.10
17998;DHT22;9124;48.144;17.098;2022-07-04T07:49:59;46.80;30.50
17998;DHT22;9124;48.144;17.098;2022-07-04T07:53:35;46.60;30.30
17998;DHT22;9124;48.144;17.098;2022-07-04T07:57:12;44.50;30.80
17998;DHT22;9124;48.144;17.098;2022-07-04T08:00:49;45.80;30.50
17998;DHT22;9124;48.144;17.098;2022-07-04T08:04:26;46.40;29.80
17998;DHT22;9124;48.144;17.098;2022-07-04T08:08:11;47.00;29.40
17998;DHT22;9124;48.144;17.098;2022-07-04T08:11:48;48.50;28.80
17998;DHT22;9124;48.144;17.098;2022-07-04T08:15:25;49.30;28.10
17998;DHT22;9124;48.144;17.098;2022-07-04T08:19:03;50.30;27.40
17998;DHT22;9124;48.144;17.098;2022-07-04T08:22:39;49.60;27.20
17998;DHT22;9124;48.144;17.098;2022-07-04T08:26:16;47.80;27.30
17998;DHT22;9124;48.144;17.098;2022-07-04T08:29:53;47.60;27.70
17998;DHT22;9124;48.144;17.098;2022-07-04T08:33:30;48.80;27.40
17998;DHT22;9124;48.144;17.098;2022-07-04T08:37:07;48.60;27.50
17998;DHT22;9124;48.144;17.098;2022-07-04T08:40:44;49.90;26.70
17998;DHT22;9124;48.144;17.098;2022-07-04T08:44:21;51.50;26.30
17998;DHT22;9124;48.144;17.098;2022-07-04T08:48:05;52.10;25.60
17998;DHT22;9124;48.144;17.098;2022-07-04T08:51:53;52.50;25.10
17998;DHT22;9124;48.144;17.098;2022-07-04T08:55:30;50.90;25.60
17998;DHT22;9124;48.144;17.098;2022-07-04T08:59:27;50.20;26.00
17998;DHT22;9124;48.144;17.098;2022-07-04T09:03:04;51.60;25.60
17998;DHT22;9124;48.144;17.098;2022-07-04T09:06:41;52.50;25.20
17998;DHT22;9124;48.144;17.098;2022-07-04T09:10:19;50.60;25.10
17998;DHT22;9124;48.144;17.098;2022-07-04T09:13:57;46.90;26.10
17998;DHT22;9124;48.144;17.098;2022-07-04T09:17:34;43.90;27.70
17998;DHT22;9124;48.144;17.098;2022-07-04T09:21:12;43.60;28.40
17998;DHT22;9124;48.144;17.098;2022-07-04T09:24:50;42.50;28.90
17998;DHT22;9124;48.144;17.098;2022-07-04T09:28:29;42.20;29.40
17998;DHT22;9124;48.144;17.098;2022-07-04T09:32:06;43.70;29.30
17998;DHT22;9124;48.144;17.098;2022-07-04T09:35:43;47.20;28.30
17998;DHT22;9124;48.144;17.098;2022-07-04T09:39:20;49.70;27.00
17998;DHT22;9124;48.144;17.098;2022-07-04T09:42:59;51.00;25.90
17998;DHT22;9124;48.144;17.098;2022-07-04T09:46:36;51.00;25.40
17998;DHT22;9124;48.144;17.098;2022-07-04T09:50:15;47.90;26.10
17998;DHT22;9124;48.144;17.098;2022-07-04T09:53:52;44.30;27.30
17998;DHT22;9124;48.144;17.098;2022-07-04T09:57:29;41.80;28.80
17998;DHT22;9124;48.144;17.098;2022-07-04T10:01:07;39.90;30.20
17998;DHT22;9124;48.144;17.098;2022-07-04T10:04:49;38.10;31.90
17998;DHT22;9124;48.144;17.098;2022-07-04T10:08:27;36.40;33.20
17998;DHT22;9124;48.144;17.098;2022-07-04T10:12:05;34.90;34.80
17998;DHT22;9124;48.144;17.098;2022-07-04T10:15:42;34.00;36.00
17998;DHT22;9124;48.144;17.098;2022-07-04T10:19:20;33.40;36.90
17998;DHT22;9124;48.144;17.098;2022-07-04T10:22:57;33.00;37.70
17998;DHT22;9124;48.144;17.098;2022-07-04T10:26:35;32.80;38.90
17998;DHT22;9124;48.144;17.098;2022-07-04T10:30:14;32.50;39.10
17998;DHT22;9124;48.144;17.098;2022-07-04T10:33:53;32.20;39.80
17998;DHT22;9124;48.144;17.098;2022-07-04T10:38:03;32.00;40.40
17998;DHT22;9124;48.144;17.098;2022-07-04T10:41:57;32.00;40.90
17998;DHT22;9124;48.144;17.098;2022-07-04T10:45:34;32.10;41.10
17998;DHT22;9124;48.144;17.098;2022-07-04T10:53:10;32.90;40.60
17998;DHT22;9124;48.144;17.098;2022-07-04T10:56:51;33.60;40.10
17998;DHT22;9124;48.144;17.098;2022-07-04T11:00:28;34.00;39.70
17998;DHT22;9124;48.144;17.098;2022-07-04T11:04:06;34.20;39.30
17998;DHT22;9124;48.144;17.098;2022-07-04T11:12:20;33.40;39.80
17998;DHT22;9124;48.144;17.098;2022-07-04T11:19:17;33.00;40.60
17998;DHT22;9124;48.144;17.098;2022-07-04T11:23:12;32.70;41.00
17998;DHT22;9124;48.144;17.098;2022-07-04T11:26:50;32.60;41.60
17998;DHT22;9124;48.144;17.098;2022-07-04T11:30:26;32.60;42.40
17998;DHT22;9124;48.144;17.098;2022-07-04T11:34:03;32.80;41.60
17998;DHT22;9124;48.144;17.098;2022-07-04T11:37:44;33.20;41.50
17998;DHT22;9124;48.144;17.098;2022-07-04T11:41:32;33.50;41.10
17998;DHT22;9124;48.144;17.098;2022-07-04T11:45:27;33.70;41.00
17998;DHT22;9124;48.144;17.098;2022-07-04T11:49:11;33.90;41.10
17998;DHT22;9124;48.144;17.098;2022-07-04T11:52:49;34.30;41.40
17998;DHT22;9124;48.144;17.098;2022-07-04T11:56:30;34.30;41.20
17998;DHT22;9124;48.144;17.098;2022-07-04T12:00:15;34.10;40.90
17998;DHT22;9124;48.144;17.098;2022-07-04T12:03:52;33.90;40.80
17998;DHT22;9124;48.144;17.098;2022-07-04T12:07:30;33.90;41.20
17998;DHT22;9124;48.144;17.098;2022-07-04T12:11:09;33.60;41.60
17998;DHT22;9124;48.144;17.098;2022-07-04T12:15:06;33.40;42.10
17998;DHT22;9124;48.144;17.098;2022-07-04T12:18:43;33.30;42.20
17998;DHT22;9124;48.144;17.098;2022-07-04T12:22:34;33.10;42.20
17998;DHT22;9124;48.144;17.098;2022-07-04T12:26:11;32.90;42.70
17998;DHT22;9124;48.144;17.098;2022-07-04T12:29:49;32.90;42.80
17998;DHT22;9124;48.144;17.098;2022-07-04T12:33:28;33.20;42.80
17998;DHT22;9124;48.144;17.098;2022-07-04T12:37:08;33.60;42.60
17998;DHT22;9124;48.144;17.098;2022-07-04T12:40:59;34.00;42.30
17998;DHT22;9124;48.144;17.098;2022-07-04T12:44:37;34.60;41.90
17998;DHT22;9124;48.144;17.098;2022-07-04T12:48:17;34.40;41.80
17998;DHT22;9124;48.144;17.098;2022-07-04T12:52:03;34.10;41.40
17998;DHT22;9124;48.144;17.098;2022-07-04T12:55:42;33.70;41.30
17998;DHT22;9124;48.144;17.098;2022-07-04T12:59:19;33.50;41.70
17998;DHT22;9124;48.144;17.098;2022-07-04T13:02:56;33.40;42.00
17998;DHT22;9124;48.144;17.098;2022-07-04T13:06:33;33.20;42.30
17998;DHT22;9124;48.144;17.098;2022-07-04T13:10:10;33.30;42.30
17998;DHT22;9124;48.144;17.098;2022-07-04T13:13:46;33.20;42.30
17998;DHT22;9124;48.144;17.098;2022-07-04T13:17:25;33.20;42.50
17998;DHT22;9124;48.144;17.098;2022-07-04T13:21:02;33.20;42.80
17998;DHT22;9124;48.144;17.098;2022-07-04T13:24:39;33.20;43.20
17998;DHT22;9124;48.144;17.098;2022-07-04T13:28:15;33.20;43.50
17998;DHT22;9124;48.144;17.098;2022-07-04T13:31:52;33.10;43.80
17998;DHT22;9124;48.144;17.098;2022-07-04T13:35:29;33.00;44.00
17998;DHT22;9124;48.144;17.098;2022-07-04T13:39:06;32.80;44.00
17998;DHT22;9124;48.144;17.098;2022-07-04T13:42:42;32.80;44.20
17998;DHT22;9124;48.144;17.098;2022-07-04T13:46:34;32.50;44.30
17998;DHT22;9124;48.144;17.098;2022-07-04T13:50:12;32.40;44.50
17998;DHT22;9124;48.144;17.098;2022-07-04T13:53:49;32.60;44.90
17998;DHT22;9124;48.144;17.098;2022-07-04T13:57:26;32.70;44.80
17998;DHT22;9124;48.144;17.098;2022-07-04T14:01:02;32.30;45.20
17998;DHT22;9124;48.144;17.098;2022-07-04T14:04:39;31.80;45.70
17998;DHT22;9124;48.144;17.098;2022-07-04T14:08:16;31.60;46.00
17998;DHT22;9124;48.144;17.098;2022-07-04T14:11:53;31.50;46.50
17998;DHT22;9124;48.144;17.098;2022-07-04T14:15:29;31.50;47.00
17998;DHT22;9124;48.144;17.098;2022-07-04T14:19:06;31.30;47.00
17998;DHT22;9124;48.144;17.098;2022-07-04T14:22:43;31.10;47.20
17998;DHT22;9124;48.144;17.098;2022-07-04T14:26:20;30.90;47.50
17998;DHT22;9124;48.144;17.098;2022-07-04T14:30:01;30.90;47.40
17998;DHT22;9124;48.144;17.098;2022-07-04T14:33:38;31.10;47.60
17998;DHT22;9124;48.144;17.098;2022-07-04T14:37:14;31.20;47.20
17998;DHT22;9124;48.144;17.098;2022-07-04T14:40:52;31.40;47.10
17998;DHT22;9124;48.144;17.098;2022-07-04T14:44:29;31.40;46.70
17998;DHT22;9124;48.144;17.098;2022-07-04T14:48:06;31.30;46.30
17998;DHT22;9124;48.144;17.098;2022-07-04T14:51:42;31.30;46.40
17998;DHT22;9124;48.144;17.098;2022-07-04T14:55:19;31.50;44.90
17998;DHT22;9124;48.144;17.098;2022-07-04T14:58:56;31.90;43.60
17998;DHT22;9124;48.144;17.098;2022-07-04T15:02:33;32.20;42.80
17998;DHT22;9124;48.144;17.098;2022-07-04T15:06:10;32.40;42.20
17998;DHT22;9124;48.144;17.098;2022-07-04T15:09:46;32.50;41.70
17998;DHT22;9124;48.144;17.098;2022-07-04T15:13:23;32.40;41.30
17998;DHT22;9124;48.144;17.098;2022-07-04T15:17:00;32.40;40.70
17998;DHT22;9124;48.144;17.098;2022-07-04T15:20:40;32.60;40.50
17998;DHT22;9124;48.144;17.098;2022-07-04T15:24:36;32.60;40.00
17998;DHT22;9124;48.144;17.098;2022-07-04T15:28:12;32.50;39.80
17998;DHT22;9124;48.144;17.098;2022-07-04T15:31:51;32.20;39.70
17998;DHT22;9124;48.144;17.098;2022-07-04T15:35:27;32.20;40.00
17998;DHT22;9124;48.144;17.098;2022-07-04T15:39:13;32.20;39.90
17998;DHT22;9124;48.144;17.098;2022-07-04T15:42:50;32.10;39.90
17998;DHT22;9124;48.144;17.098;2022-07-04T15:46:27;32.00;39.80
17998;DHT22;9124;48.144;17.098;2022-07-04T15:50:05;31.90;40.40
17998;DHT22;9124;48.144;17.098;2022-07-04T15:53:42;31.60;39.50
17998;DHT22;9124;48.144;17.098;2022-07-04T15:57:19;31.50;39.10
17998;DHT22;9124;48.144;17.098;2022-07-04T16:00:56;31.20;38.80
17998;DHT22;9124;48.144;17.098;2022-07-04T16:04:33;31.00;39.00
17998;DHT22;9124;48.144;17.098;2022-07-04T16:08:10;30.80;38.80
17998;DHT22;9124;48.144;17.098;2022-07-04T16:11:47;30.70;39.00
17998;DHT22;9124;48.144;17.098;2022-07-04T16:15:26;30.60;39.30
17998;DHT22;9124;48.144;17.098;2022-07-04T16:19:04;30.50;39.70
17998;DHT22;9124;48.144;17.098;2022-07-04T16:22:40;30.50;40.10
17998;DHT22;9124;48.144;17.098;2022-07-04T16:26:17;30.60;40.50
17998;DHT22;9124;48.144;17.098;2022-07-04T16:29:54;30.70;40.60
17998;DHT22;9124;48.144;17.098;2022-07-04T16:33:31;30.70;40.90
17998;DHT22;9124;48.144;17.098;2022-07-04T16:37:07;30.60;41.00
17998;DHT22;9124;48.144;17.098;2022-07-04T16:40:44;30.40;41.00
17998;DHT22;9124;48.144;17.098;2022-07-04T16:44:20;30.20;41.20
17998;DHT22;9124;48.144;17.098;2022-07-04T16:47:57;30.00;41.50
17998;DHT22;9124;48.144;17.098;2022-07-04T16:51:34;29.80;41.80
17998;DHT22;9124;48.144;17.098;2022-07-04T16:55:11;29.60;43.40
17998;DHT22;9124;48.144;17.098;2022-07-04T16:58:48;29.30;44.70
17998;DHT22;9124;48.144;17.098;2022-07-04T17:02:25;29.10;45.80
17998;DHT22;9124;48.144;17.098;2022-07-04T17:06:02;29.00;46.70
17998;DHT22;9124;48.144;17.098;2022-07-04T17:09:39;28.90;47.60
17998;DHT22;9124;48.144;17.098;2022-07-04T17:13:16;28.80;48.00
17998;DHT22;9124;48.144;17.098;2022-07-04T17:16:52;28.70;48.30
17998;DHT22;9124;48.144;17.098;2022-07-04T17:20:30;28.70;48.70
17998;DHT22;9124;48.144;17.098;2022-07-04T17:24:07;28.70;49.10
17998;DHT22;9124;48.144;17.098;2022-07-04T17:27:44;28.70;49.30
17998;DHT22;9124;48.144;17.098;2022-07-04T17:31:21;28.60;49.50
17998;DHT22;9124;48.144;17.098;2022-07-04T17:34:58;28.60;49.80
17998;DHT22;9124;48.144;17.098;2022-07-04T17:38:34;28.50;50.10
17998;DHT22;9124;48.144;17.098;2022-07-04T17:42:12;28.40;50.50
17998;DHT22;9124;48.144;17.098;2022-07-04T17:45:48;28.20;50.80
17998;DHT22;9124;48.144;17.098;2022-07-04T17:49:25;28.10;51.10
17998;DHT22;9124;48.144;17.098;2022-07-04T17:53:02;28.00;51.40
17998;DHT22;9124;48.144;17.098;2022-07-04T17:56:40;27.90;51.70
17998;DHT22;9124;48.144;17.098;2022-07-04T18:00:17;27.80;52.00
17998;DHT22;9124;48.144;17.098;2022-07-04T18:03:54;27.70;52.20
17998;DHT22;9124;48.144;17.098;2022-07-04T18:07:31;27.70;52.40
17998;DHT22;9124;48.144;17.098;2022-07-04T18:11:08;27.60;52.70
17998;DHT22;9124;48.144;17.098;2022-07-04T18:14:45;27.50;53.00
17998;DHT22;9124;48.144;17.098;2022-07-04T18:18:22;27.50;53.30
17998;DHT22;9124;48.144;17.098;2022-07-04T18:21:58;27.40;53.60
17998;DHT22;9124;48.144;17.098;2022-07-04T18:25:38;27.30;53.90
17998;DHT22;9124;48.144;17.098;2022-07-04T18:29:18;27.20;54.20
17998;DHT22;9124;48.144;17.098;2022-07-04T18:32:55;27.20;54.50
17998;DHT22;9124;48.144;17.098;2022-07-04T18:36:31;27.10;54.70
17998;DHT22;9124;48.144;17.098;2022-07-04T18:40:08;27.10;55.00
17998;DHT22;9124;48.144;17.098;2022-07-04T18:44:05;27.00;55.20
17998;DHT22;9124;48.144;17.098;2022-07-04T18:47:43;26.90;55.30
17998;DHT22;9124;48.144;17.098;2022-07-04T18:51:20;26.90;55.70
17998;DHT22;9124;48.144;17.098;2022-07-04T18:54:56;26.90;55.90
17998;DHT22;9124;48.144;17.098;2022-07-04T18:58:33;26.80;56.20
17998;DHT22;9124;48.144;17.098;2022-07-04T19:02:11;26.70;56.50
17998;DHT22;9124;48.144;17.098;2022-07-04T19:05:48;26.60;56.80
17998;DHT22;9124;48.144;17.098;2022-07-04T19:09:25;26.50;57.20
17998;DHT22;9124;48.144;17.098;2022-07-04T19:13:04;26.40;57.50
17998;DHT22;9124;48.144;17.098;2022-07-04T19:16:41;26.40;57.90
17998;DHT22;9124;48.144;17.098;2022-07-04T19:20:18;26.30;58.20
17998;DHT22;9124;48.144;17.098;2022-07-04T19:23:55;26.30;58.60
17998;DHT22;9124;48.144;17.098;2022-07-04T19:27:32;26.20;58.80
17998;DHT22;9124;48.144;17.098;2022-07-04T19:31:09;26.20;59.20
17998;DHT22;9124;48.144;17.098;2022-07-04T19:34:47;26.10;60.00
17998;DHT22;9124;48.144;17.098;2022-07-04T19:38:23;26.10;59.80
17998;DHT22;9124;48.144;17.098;2022-07-04T19:42:00;26.00;60.30
17998;DHT22;9124;48.144;17.098;2022-07-04T19:45:37;25.90;61.10
17998;DHT22;9124;48.144;17.098;2022-07-04T19:49:14;25.70;61.80
17998;DHT22;9124;48.144;17.098;2022-07-04T19:52:53;25.60;62.50
17998;DHT22;9124;48.144;17.098;2022-07-04T19:56:30;25.50;63.00
17998;DHT22;9124;48.144;17.098;2022-07-04T20:00:08;25.40;63.50
17998;DHT22;9124;48.144;17.098;2022-07-04T20:03:45;25.20;64.00
17998;DHT22;9124;48.144;17.098;2022-07-04T20:07:22;25.10;64.60
17998;DHT22;9124;48.144;17.098;2022-07-04T20:10:59;25.00;65.20
17998;DHT22;9124;48.144;17.098;2022-07-04T20:14:39;24.80;65.80
17998;DHT22;9124;48.144;17.098;2022-07-04T20:18:17;24.70;66.40
17998;DHT22;9124;48.144;17.098;2022-07-04T20:21:54;24.50;67.00
17998;DHT22;9124;48.144;17.098;2022-07-04T20:25:31;24.40;67.60
17998;DHT22;9124;48.144;17.098;2022-07-04T20:29:09;24.30;68.10
17998;DHT22;9124;48.144;17.098;2022-07-04T20:32:47;24.20;68.70
17998;DHT22;9124;48.144;17.098;2022-07-04T20:36:24;24.10;69.20
17998;DHT22;9124;48.144;17.098;2022-07-04T20:40:02;24.00;69.60
17998;DHT22;9124;48.144;17.098;2022-07-04T20:43:39;23.90;70.00
17998;DHT22;9124;48.144;17.098;2022-07-04T20:47:16;23.90;70.20
17998;DHT22;9124;48.144;17.098;2022-07-04T20:50:53;23.80;70.50
17998;DHT22;9124;48.144;17.098;2022-07-04T20:54:30;23.80;70.80
17998;DHT22;9124;48.144;17.098;2022-07-04T20:58:07;23.70;71.10
17998;DHT22;9124;48.144;17.098;2022-07-04T21:01:45;23.60;71.30
17998;DHT22;9124;48.144;17.098;2022-07-04T21:05:22;23.60;71.50
17998;DHT22;9124;48.144;17.098;2022-07-04T21:08:59;23.60;71.60
17998;DHT22;9124;48.144;17.098;2022-07-04T21:12:36;23.50;72.20
17998;DHT22;9124;48.144;17.098;2022-07-04T21:16:14;23.40;73.20
17998;DHT22;9124;48.144;17.098;2022-07-04T21:19:51;23.20;73.80
17998;DHT22;9124;48.144;17.098;2022-07-04T21:23:28;23.20;74.30
17998;DHT22;9124;48.144;17.098;2022-07-04T21:27:05;23.20;74.40
17998;DHT22;9124;48.144;17.098;2022-07-04T21:30:42;23.20;74.40
17998;DHT22;9124;48.144;17.098;2022-07-04T21:34:18;23.20;74.40
17998;DHT22;9124;48.144;17.098;2022-07-04T21:37:56;23.20;74.50
17998;DHT22;9124;48.144;17.098;2022-07-04T21:41:34;23.20;74.70
17998;DHT22;9124;48.144;17.098;2022-07-04T21:45:10;23.20;74.90
17998;DHT22;9124;48.144;17.098;2022-07-04T21:48:47;23.20;75.30
17998;DHT22;9124;48.144;17.098;2022-07-04T21:52:24;23.10;75.50
17998;DHT22;9124;48.144;17.098;2022-07-04T21:56:01;23.10;75.80
17998;DHT22;9124;48.144;17.098;2022-07-04T21:59:37;23.00;76.30
17998;DHT22;9124;48.144;17.098;2022-07-04T22:03:14;23.00;76.80
17998;DHT22;9124;48.144;17.098;2022-07-04T22:06:51;22.90;77.10
17998;DHT22;9124;48.144;17.098;2022-07-04T22:10:28;22.90;78.00
17998;DHT22;9124;48.144;17.098;2022-07-04T22:14:04;22.80;78.80
17998;DHT22;9124;48.144;17.098;2022-07-04T22:17:41;22.80;80.20
17998;DHT22;9124;48.144;17.098;2022-07-04T22:21:18;22.70;79.70
17998;DHT22;9124;48.144;17.098;2022-07-04T22:24:55;22.60;80.50
17998;DHT22;9124;48.144;17.098;2022-07-04T22:28:32;22.50;81.00
17998;DHT22;9124;48.144;17.098;2022-07-04T22:32:08;22.40;81.60
17998;DHT22;9124;48.144;17.098;2022-07-04T22:35:45;22.40;82.10
17998;DHT22;9124;48.144;17.098;2022-07-04T22:39:22;22.40;82.60
17998;DHT22;9124;48.144;17.098;2022-07-04T22:42:59;22.30;83.00
17998;DHT22;9124;48.144;17.098;2022-07-04T22:46:36;22.30;84.10
17998;DHT22;9124;48.144;17.098;2022-07-04T22:50:13;22.20;84.10
17998;DHT22;9124;48.144;17.098;2022-07-04T22:53:49;22.10;84.70
17998;DHT22;9124;48.144;17.098;2022-07-04T22:57:46;22.10;84.80
17998;DHT22;9124;48.144;17.098;2022-07-04T23:01:23;22.10;85.20
17998;DHT22;9124;48.144;17.098;2022-07-04T23:05:01;22.10;85.40
17998;DHT22;9124;48.144;17.098;2022-07-04T23:08:38;22.10;85.30